createdAt,value
2018-12-21T00:02:22.739Z,33.76
2018-12-21T00:04:51.898Z,33.23
2018-12-21T00:07:21.293Z,32.87
2018-12-21T00:09:50.601Z,33.16
2018-12-21T00:12:19.691Z,32.80
2018-12-21T00:14:49.292Z,33.28
2018-12-21T00:17:18.355Z,33.33
2018-12-21T00:19:47.613Z,33.52
2018-12-21T00:22:16.907Z,33.36
2018-12-21T00:24:45.987Z,33.45
2018-12-21T00:27:15.002Z,33.61
2018-12-21T00:29:44.384Z,33.78
2018-12-21T00:32:18.671Z,33.49
2018-12-21T00:34:52.705Z,33.76
2018-12-21T00:37:26.820Z,33.54
2018-12-21T00:40:01.060Z,33.79
2018-12-21T00:42:38.131Z,33.90
2018-12-21T00:45:09.367Z,33.85
2018-12-21T00:47:38.543Z,34.02
2018-12-21T00:50:08.537Z,33.22
2018-12-21T00:52:37.937Z,33.81
2018-12-21T00:55:07.196Z,33.86
2018-12-21T00:57:36.273Z,33.42
2018-12-21T01:00:06.641Z,33.28
2018-12-21T01:02:36.145Z,33.54
2018-12-21T01:05:05.382Z,33.18
2018-12-21T01:07:34.615Z,33.42
2018-12-21T01:10:03.952Z,33.31
2018-12-21T01:12:34.781Z,33.67
2018-12-21T01:15:04.058Z,33.66
2018-12-21T01:17:33.801Z,33.61
2018-12-21T01:20:02.948Z,33.08
2018-12-21T01:22:32.037Z,33.46
2018-12-21T01:25:01.401Z,33.29
2018-12-21T01:27:30.676Z,33.17
2018-12-21T01:29:59.891Z,32.92
2018-12-21T01:32:29.412Z,33.25
2018-12-21T01:34:58.908Z,33.34
2018-12-21T01:37:28.195Z,33.00
2018-12-21T01:39:57.582Z,33.08
2018-12-21T01:42:26.826Z,33.56
2018-12-21T01:44:56.233Z,33.00
2018-12-21T01:47:25.748Z,32.91
2018-12-21T01:49:55.087Z,33.23
2018-12-21T01:52:24.263Z,32.74
2018-12-21T01:54:53.609Z,33.03
2018-12-21T01:57:22.792Z,33.27
2018-12-21T01:59:51.901Z,32.92
2018-12-21T02:02:21.251Z,33.38
2018-12-21T02:04:50.564Z,33.44
2018-12-21T02:07:19.590Z,32.94
2018-12-21T02:09:48.823Z,32.94
2018-12-21T02:12:17.987Z,33.12
2018-12-21T02:14:47.194Z,32.64
2018-12-21T02:17:16.303Z,33.06
2018-12-21T02:19:45.699Z,33.26
2018-12-21T02:22:14.897Z,32.74
2018-12-21T02:24:44.084Z,32.92
2018-12-21T02:27:13.228Z,33.33
2018-12-21T02:29:42.620Z,33.64
2018-12-21T02:32:11.998Z,33.21
2018-12-21T02:34:41.117Z,33.09
2018-12-21T02:37:10.294Z,33.03
2018-12-21T02:39:39.352Z,33.09
2018-12-21T02:42:08.705Z,32.99
2018-12-21T02:44:37.896Z,33.46
2018-12-21T02:47:07.195Z,33.40
2018-12-21T02:49:36.414Z,33.16
2018-12-21T02:52:05.915Z,33.22
2018-12-21T02:54:35.572Z,32.48
2018-12-21T02:57:05.557Z,32.79
2018-12-21T02:59:34.771Z,32.95
2018-12-21T03:02:04.132Z,32.41
2018-12-21T03:04:33.216Z,32.40
2018-12-21T03:07:02.484Z,32.75
2018-12-21T03:09:31.555Z,32.99
2018-12-21T03:12:00.704Z,32.44
2018-12-21T03:14:29.942Z,33.09
2018-12-21T03:16:59.206Z,32.71
2018-12-21T03:19:28.414Z,32.70
2018-12-21T03:21:57.511Z,32.65
2018-12-21T03:24:26.719Z,33.07
2018-12-21T03:26:55.893Z,32.70
2018-12-21T03:29:24.897Z,32.77
2018-12-21T03:31:54.146Z,32.73
2018-12-21T03:34:23.303Z,32.67
2018-12-21T03:36:52.700Z,32.92
2018-12-21T03:39:21.691Z,32.69
2018-12-21T03:41:50.557Z,32.74
2018-12-21T03:44:19.866Z,32.74
2018-12-21T03:46:49.092Z,32.18
2018-12-21T03:49:18.347Z,32.89
2018-12-21T03:51:47.589Z,32.99
2018-12-21T03:54:16.809Z,32.78
2018-12-21T03:56:46.075Z,32.98
2018-12-21T03:59:15.323Z,32.90
2018-12-21T04:01:44.543Z,32.66
2018-12-21T04:04:13.905Z,32.46
2018-12-21T04:06:43.216Z,32.54
2018-12-21T04:09:12.505Z,32.76
2018-12-21T04:11:41.904Z,32.53
2018-12-21T04:14:11.170Z,32.73
2018-12-21T04:16:40.303Z,32.03
2018-12-21T04:19:09.497Z,32.22
2018-12-21T04:21:38.803Z,32.45
2018-12-21T04:24:08.025Z,32.78
2018-12-21T04:26:37.063Z,33.00
2018-12-21T04:29:06.169Z,32.59
2018-12-21T04:31:35.277Z,32.45
2018-12-21T04:34:04.604Z,32.78
2018-12-21T04:36:33.983Z,33.02
2018-12-21T04:39:04.230Z,33.09
2018-12-21T04:41:33.293Z,32.88
2018-12-21T04:44:02.380Z,33.21
2018-12-21T04:46:31.488Z,32.68
2018-12-21T04:49:00.803Z,33.09
2018-12-21T04:51:29.762Z,32.38
2018-12-21T04:53:58.956Z,32.46
2018-12-21T04:56:28.184Z,32.10
2018-12-21T04:58:57.288Z,31.95
2018-12-21T05:01:26.743Z,32.07
2018-12-21T05:03:56.093Z,32.41
2018-12-21T05:06:25.347Z,32.03
2018-12-21T05:08:54.651Z,32.22
2018-12-21T05:11:26.068Z,32.67
2018-12-21T05:13:55.346Z,32.38
2018-12-21T05:16:24.537Z,32.35
2018-12-21T05:18:53.835Z,31.82
2018-12-21T05:21:22.939Z,32.12
2018-12-21T05:23:52.187Z,32.19
2018-12-21T05:26:21.364Z,32.36
2018-12-21T05:28:50.308Z,31.85
2018-12-21T05:31:28.069Z,31.76
2018-12-21T05:33:51.569Z,31.86
2018-12-21T05:36:20.764Z,31.97
2018-12-21T05:38:49.857Z,31.89
2018-12-21T05:41:19.027Z,31.80
2018-12-21T05:43:48.209Z,31.82
2018-12-21T05:46:17.234Z,32.13
2018-12-21T05:48:46.376Z,32.17
2018-12-21T05:51:15.404Z,31.87
2018-12-21T05:53:44.464Z,30.91
2018-12-21T05:56:13.612Z,30.66
2018-12-21T05:58:42.743Z,31.35
2018-12-21T06:01:11.843Z,31.33
2018-12-21T06:03:40.936Z,31.56
2018-12-21T06:06:09.996Z,31.80
2018-12-21T06:08:39.160Z,31.87
2018-12-21T06:11:08.251Z,31.79
2018-12-21T06:13:37.409Z,32.06
2018-12-21T06:16:06.547Z,31.71
2018-12-21T06:18:35.747Z,31.73
2018-12-21T06:21:04.864Z,31.78
2018-12-21T06:23:34.020Z,32.15
2018-12-21T06:26:03.333Z,33.02
2018-12-21T06:28:32.369Z,32.58
2018-12-21T06:31:01.535Z,33.15
2018-12-21T06:33:30.803Z,34.02
2018-12-21T06:36:00.058Z,34.71
2018-12-21T06:38:29.335Z,34.78
2018-12-21T06:40:58.554Z,34.73
2018-12-21T06:43:27.728Z,35.79
2018-12-21T06:45:57.627Z,35.63
2018-12-21T06:48:26.976Z,35.64
2018-12-21T06:50:56.262Z,36.63
2018-12-21T06:53:25.656Z,36.28
2018-12-21T06:55:54.995Z,36.96
2018-12-21T06:58:24.227Z,35.10
2018-12-21T07:00:53.451Z,36.64
2018-12-21T07:03:22.772Z,35.38
2018-12-21T07:05:51.964Z,35.91
2018-12-21T07:08:21.147Z,37.91
2018-12-21T07:10:50.219Z,38.39
2018-12-21T07:13:19.320Z,38.57
2018-12-21T07:15:48.424Z,37.82
2018-12-21T07:18:17.369Z,38.27
2018-12-21T07:20:46.627Z,38.91
2018-12-21T07:23:15.962Z,37.15
2018-12-21T07:25:45.107Z,35.23
2018-12-21T07:28:14.377Z,38.24
2018-12-21T07:30:43.616Z,39.14
2018-12-21T07:33:12.818Z,38.24
2018-12-21T07:35:42.533Z,39.95
2018-12-21T07:38:11.549Z,36.27
2018-12-21T07:40:40.736Z,35.54
2018-12-21T07:43:10.055Z,38.69
2018-12-21T07:45:39.334Z,39.25
2018-12-21T07:48:08.643Z,39.24
2018-12-21T07:50:37.635Z,38.80
2018-12-21T07:53:06.594Z,39.18
2018-12-21T07:55:35.596Z,38.61
2018-12-21T07:58:04.578Z,39.46
2018-12-21T08:00:33.855Z,39.04
2018-12-21T08:03:03.176Z,38.74
2018-12-21T08:05:32.235Z,38.25
2018-12-21T08:08:01.505Z,38.74
2018-12-21T08:10:30.544Z,38.28
2018-12-21T08:12:59.819Z,37.66
2018-12-21T08:15:28.884Z,37.53
2018-12-21T08:17:58.056Z,37.50
2018-12-21T08:20:27.197Z,37.60
2018-12-21T08:22:56.351Z,37.44
2018-12-21T08:25:25.706Z,37.32
2018-12-21T08:27:55.009Z,37.23
2018-12-21T08:30:24.317Z,36.75
2018-12-21T08:32:53.619Z,36.63
2018-12-21T08:35:22.821Z,36.96
2018-12-21T08:37:51.904Z,35.72
2018-12-21T08:40:21.055Z,34.13
2018-12-21T08:42:50.405Z,33.75
2018-12-21T08:45:19.711Z,33.74
2018-12-21T08:47:48.896Z,33.92
2018-12-21T08:50:18.133Z,34.17
2018-12-21T08:52:47.151Z,34.28
2018-12-21T08:55:16.426Z,34.13
2018-12-21T08:57:45.711Z,32.28
2018-12-21T09:00:15.159Z,34.38
2018-12-21T09:02:44.433Z,33.84
2018-12-21T09:05:13.730Z,33.33
2018-12-21T09:07:43.060Z,33.33
2018-12-21T09:10:12.236Z,32.72
2018-12-21T09:12:41.504Z,32.19
2018-12-21T09:15:14.815Z,32.03
2018-12-21T09:17:43.896Z,32.21
2018-12-21T09:20:13.077Z,31.02
2018-12-21T09:22:42.162Z,30.51
2018-12-21T09:25:11.174Z,30.35
2018-12-21T09:27:40.368Z,30.42
2018-12-21T09:30:12.731Z,30.16
2018-12-21T09:32:41.970Z,30.36
2018-12-21T09:35:11.043Z,30.71
2018-12-21T09:37:40.368Z,30.26
2018-12-21T09:40:11.633Z,30.16
2018-12-21T09:42:41.003Z,30.73
2018-12-21T09:45:10.298Z,30.36
2018-12-21T09:47:39.462Z,31.41
2018-12-21T09:50:10.037Z,31.43
2018-12-21T09:52:39.029Z,30.99
2018-12-21T09:55:08.633Z,30.80
2018-12-21T09:57:37.927Z,30.85
2018-12-21T10:00:09.800Z,30.48
2018-12-21T10:02:39.105Z,31.26
2018-12-21T10:05:10.448Z,31.00
2018-12-21T10:07:39.581Z,31.40
2018-12-21T10:10:08.853Z,31.21
2018-12-21T10:12:38.248Z,31.51
2018-12-21T10:15:08.232Z,31.79
2018-12-21T10:17:37.495Z,31.06
2018-12-21T10:20:08.108Z,31.02
2018-12-21T10:22:37.354Z,30.84
2018-12-21T10:25:07.256Z,31.42
2018-12-21T10:27:36.400Z,31.38
2018-12-21T10:30:06.320Z,31.30
2018-12-21T10:32:35.431Z,30.80
2018-12-21T10:35:04.515Z,30.99
2018-12-21T10:37:33.849Z,31.33
2018-12-21T10:40:03.151Z,31.50
2018-12-21T10:42:31.959Z,31.38
2018-12-21T10:45:01.196Z,31.91
2018-12-21T10:47:30.187Z,31.10
2018-12-21T10:49:59.534Z,30.93
2018-12-21T10:52:28.813Z,31.40
2018-12-21T10:54:57.863Z,31.30
2018-12-21T10:57:27.025Z,31.31
2018-12-21T10:59:56.104Z,31.43
2018-12-21T11:02:25.212Z,31.28
2018-12-21T11:04:54.372Z,31.26
2018-12-21T11:07:23.396Z,31.27
2018-12-21T11:09:52.793Z,31.29
2018-12-21T11:12:21.932Z,31.65
2018-12-21T11:14:51.079Z,31.52
2018-12-21T11:17:20.316Z,31.80
2018-12-21T11:19:49.667Z,30.92
2018-12-21T11:22:18.799Z,31.35
2018-12-21T11:24:48.135Z,31.63
2018-12-21T11:27:17.495Z,30.96
2018-12-21T11:29:46.383Z,31.02
2018-12-21T11:32:15.139Z,31.09
2018-12-21T11:34:44.059Z,31.53
2018-12-21T11:37:12.929Z,31.27
2018-12-21T11:39:41.705Z,31.18
2018-12-21T11:42:10.888Z,30.70
2018-12-21T11:44:40.476Z,30.99
2018-12-21T11:47:09.654Z,30.74
2018-12-21T11:49:39.060Z,30.81
2018-12-21T11:52:08.291Z,31.24
2018-12-21T11:54:44.195Z,31.02
2018-12-21T11:57:08.537Z,31.09
2018-12-21T11:59:44.881Z,30.90
2018-12-21T12:02:09.008Z,30.68
2018-12-21T12:04:38.267Z,31.11
2018-12-21T12:07:07.659Z,31.18
2018-12-21T12:09:36.704Z,30.87
2018-12-21T12:12:05.955Z,31.04
2018-12-21T12:14:35.036Z,28.61
2018-12-21T12:17:04.097Z,29.92
2018-12-21T12:19:33.218Z,30.28
2018-12-21T12:22:02.437Z,30.23
2018-12-21T12:24:31.611Z,30.04
2018-12-21T12:27:00.796Z,30.40
2018-12-21T12:29:29.995Z,30.42
2018-12-21T12:31:59.245Z,30.80
2018-12-21T12:34:28.374Z,31.03
2018-12-21T12:36:58.078Z,30.83
2018-12-21T12:39:27.436Z,30.31
2018-12-21T12:41:56.746Z,30.45
2018-12-21T12:44:25.932Z,30.68
2018-12-21T12:46:55.148Z,31.17
2018-12-21T12:49:24.328Z,31.23
2018-12-21T12:51:53.782Z,30.57
2018-12-21T12:54:23.063Z,30.98
2018-12-21T12:56:52.348Z,30.40
2018-12-21T12:59:21.408Z,30.51
2018-12-21T13:01:50.665Z,31.06
2018-12-21T13:04:19.952Z,30.91
2018-12-21T13:06:49.131Z,30.89
2018-12-21T13:09:18.360Z,31.23
2018-12-21T13:11:47.663Z,31.08
2018-12-21T13:14:16.926Z,30.75
2018-12-21T13:16:45.968Z,30.66
2018-12-21T13:19:15.032Z,31.15
2018-12-21T13:21:44.008Z,31.45
2018-12-21T13:24:13.232Z,30.88
2018-12-21T13:26:42.524Z,30.92
2018-12-21T13:29:11.950Z,31.31
2018-12-21T13:31:41.001Z,30.85
2018-12-21T13:34:09.916Z,31.24
2018-12-21T13:36:38.997Z,30.84
2018-12-21T13:39:09.435Z,30.86
2018-12-21T13:41:38.664Z,31.12
2018-12-21T13:44:07.940Z,30.87
2018-12-21T13:46:37.259Z,31.37
2018-12-21T13:49:06.452Z,30.93
2018-12-21T13:51:35.766Z,31.30
2018-12-21T13:54:05.162Z,31.35
2018-12-21T13:56:34.315Z,30.87
2018-12-21T13:59:03.555Z,30.93
2018-12-21T14:01:32.606Z,30.87
2018-12-21T14:04:01.880Z,30.96
2018-12-21T14:06:31.103Z,30.98
2018-12-21T14:09:00.358Z,30.69
2018-12-21T14:11:30.299Z,30.69
2018-12-21T14:13:59.648Z,31.05
2018-12-21T14:16:28.991Z,30.97
2018-12-21T14:18:58.259Z,31.46
2018-12-21T14:21:27.581Z,30.70
2018-12-21T14:23:56.964Z,31.06
2018-12-21T14:26:26.263Z,30.48
2018-12-21T14:28:55.549Z,30.96
2018-12-21T14:31:24.764Z,31.13
2018-12-21T14:33:53.954Z,30.95
2018-12-21T14:36:23.139Z,30.88
2018-12-21T14:38:52.364Z,30.58
2018-12-21T14:41:21.690Z,30.74
2018-12-21T14:43:50.880Z,31.16
2018-12-21T14:46:20.265Z,31.46
2018-12-21T14:48:49.256Z,31.04
2018-12-21T14:51:18.473Z,31.40
2018-12-21T14:53:47.552Z,31.04
2018-12-21T14:56:16.751Z,30.83
2018-12-21T14:58:45.835Z,31.42
2018-12-21T15:01:15.080Z,31.35
2018-12-21T15:03:44.354Z,31.67
2018-12-21T15:06:13.539Z,32.00
2018-12-21T15:08:42.741Z,32.26
2018-12-21T15:11:11.850Z,32.62
2018-12-21T15:13:40.836Z,32.25
2018-12-21T15:16:10.096Z,32.13
2018-12-21T15:18:39.451Z,31.90
2018-12-21T15:21:08.647Z,32.24
2018-12-21T15:23:37.939Z,31.62
2018-12-21T15:26:07.152Z,31.55
2018-12-21T15:28:36.141Z,31.60
2018-12-21T15:31:05.428Z,30.86
2018-12-21T15:33:34.737Z,30.76
2018-12-21T15:36:03.840Z,31.14
2018-12-21T15:38:32.935Z,30.79
2018-12-21T15:41:02.180Z,30.51
2018-12-21T15:43:31.536Z,30.68
2018-12-21T15:46:00.750Z,30.10
2018-12-21T15:48:30.123Z,30.60
2018-12-21T15:50:59.363Z,30.23
2018-12-21T15:53:28.735Z,30.47
2018-12-21T15:55:57.790Z,30.26
2018-12-21T15:58:26.961Z,30.05
2018-12-21T16:00:56.147Z,29.94
2018-12-21T16:03:25.203Z,30.27
2018-12-21T16:05:54.216Z,30.06
2018-12-21T16:08:23.417Z,30.14
2018-12-21T16:10:52.748Z,30.36
2018-12-21T16:13:22.050Z,30.17
2018-12-21T16:15:51.234Z,29.71
2018-12-21T16:18:20.211Z,29.78
2018-12-21T16:20:49.333Z,30.13
2018-12-21T16:23:18.337Z,29.94
2018-12-21T16:25:47.394Z,29.41
2018-12-21T16:28:16.716Z,29.72
2018-12-21T16:30:45.793Z,28.43
2018-12-21T16:33:15.028Z,29.66
2018-12-21T16:35:44.284Z,29.57
2018-12-21T16:38:13.375Z,29.72
2018-12-21T16:40:42.581Z,29.70
2018-12-21T16:43:11.850Z,29.35
2018-12-21T16:45:41.054Z,29.58
2018-12-21T16:48:10.536Z,29.34
2018-12-21T16:50:39.707Z,29.71
2018-12-21T16:53:09.218Z,29.47
2018-12-21T16:55:38.285Z,29.67
2018-12-21T16:58:07.492Z,30.19
2018-12-21T17:00:36.621Z,29.83
2018-12-21T17:03:05.824Z,29.85
2018-12-21T17:05:35.460Z,30.59
2018-12-21T17:08:04.641Z,30.71
2018-12-21T17:10:33.577Z,30.66
2018-12-21T17:13:02.584Z,31.28
2018-12-21T17:15:31.639Z,33.61
2018-12-21T17:18:00.750Z,34.08
2018-12-21T17:20:29.906Z,32.45
2018-12-21T17:23:00.796Z,32.22
2018-12-21T17:25:30.756Z,33.10
2018-12-21T17:28:00.111Z,33.26
2018-12-21T17:30:29.160Z,33.25
2018-12-21T17:32:58.587Z,32.88
2018-12-21T17:35:27.594Z,35.39
2018-12-21T17:37:56.731Z,36.15
2018-12-21T17:40:25.812Z,33.52
2018-12-21T17:42:55.148Z,33.65
2018-12-21T17:45:24.284Z,36.02
2018-12-21T17:47:53.460Z,33.49
2018-12-21T17:50:22.521Z,33.69
2018-12-21T17:52:51.440Z,33.75
2018-12-21T17:55:20.704Z,34.05
2018-12-21T17:57:49.931Z,33.86
2018-12-21T18:00:20.753Z,33.80
2018-12-21T18:02:55.075Z,32.97
2018-12-21T18:05:25.214Z,33.08
2018-12-21T18:07:57.363Z,33.21
2018-12-21T18:10:26.780Z,34.37
2018-12-21T18:12:55.847Z,33.97
2018-12-21T18:15:24.918Z,34.48
2018-12-21T18:17:54.203Z,34.99
2018-12-21T18:20:23.363Z,35.67
2018-12-21T18:22:52.474Z,34.80
2018-12-21T18:25:26.915Z,36.94
2018-12-21T18:27:58.399Z,38.04
2018-12-21T18:30:31.409Z,37.20
2018-12-21T18:33:10.279Z,35.59
2018-12-21T18:35:34.003Z,38.03
2018-12-21T18:38:05.684Z,36.36
2018-12-21T18:40:35.211Z,36.53
2018-12-21T18:43:04.584Z,38.25
2018-12-21T18:45:33.812Z,39.92
2018-12-21T18:48:03.100Z,37.93
2018-12-21T18:50:32.922Z,36.36
2018-12-21T18:53:02.120Z,37.95
2018-12-21T18:55:31.572Z,37.45
2018-12-21T18:58:00.811Z,35.77
2018-12-21T19:00:30.172Z,39.21
2018-12-21T19:02:59.422Z,37.00
2018-12-21T19:05:28.629Z,37.80
2018-12-21T19:07:57.814Z,36.60
2018-12-21T19:10:27.632Z,36.77
2018-12-21T19:12:57.020Z,36.29
2018-12-21T19:15:26.233Z,35.83
2018-12-21T19:17:55.347Z,35.67
2018-12-21T19:20:24.612Z,35.90
2018-12-21T19:22:53.914Z,37.46
2018-12-21T19:25:23.296Z,37.56
2018-12-21T19:27:52.433Z,36.41
2018-12-21T19:30:21.425Z,36.01
2018-12-21T19:32:50.717Z,36.41
2018-12-21T19:35:27.270Z,38.98
2018-12-21T19:37:51.373Z,39.42
2018-12-21T19:40:20.663Z,37.47
2018-12-21T19:42:49.968Z,37.78
2018-12-21T19:45:19.257Z,38.12
2018-12-21T19:47:48.724Z,37.72
2018-12-21T19:50:17.977Z,35.84
2018-12-21T19:52:47.430Z,35.22
2018-12-21T19:55:44.991Z,35.62
2018-12-21T19:58:14.043Z,35.99
2018-12-21T20:00:43.009Z,35.95
2018-12-21T20:03:12.252Z,35.88
2018-12-21T20:05:41.470Z,36.15
2018-12-21T20:08:10.639Z,35.87
2018-12-21T20:10:39.508Z,35.85
2018-12-21T20:13:08.630Z,35.27
2018-12-21T20:15:37.840Z,35.54
2018-12-21T20:18:07.239Z,35.48
2018-12-21T20:20:36.635Z,35.31
2018-12-21T20:23:05.734Z,35.50
2018-12-21T20:25:34.733Z,35.05
2018-12-21T20:28:03.800Z,35.05
2018-12-21T20:30:33.197Z,34.44
2018-12-21T20:33:02.264Z,34.84
2018-12-21T20:35:31.587Z,34.53
2018-12-21T20:38:01.444Z,34.82
2018-12-21T20:40:30.662Z,34.37
2018-12-21T20:42:59.940Z,34.99
2018-12-21T20:45:29.148Z,34.67
2018-12-21T20:47:58.416Z,34.57
2018-12-21T20:50:27.555Z,34.64
2018-12-21T20:52:56.736Z,34.30
2018-12-21T20:55:25.938Z,34.16
2018-12-21T20:58:00.292Z,34.05
2018-12-21T21:00:29.452Z,34.18
2018-12-21T21:02:58.751Z,33.99
2018-12-21T21:05:28.055Z,34.16
2018-12-21T21:07:57.374Z,34.34
2018-12-21T21:10:26.667Z,33.59
2018-12-21T21:12:55.935Z,33.52
2018-12-21T21:15:24.964Z,33.96
2018-12-21T21:17:54.251Z,33.51
2018-12-21T21:20:23.353Z,33.40
2018-12-21T21:22:52.682Z,33.81
2018-12-21T21:25:21.743Z,34.05
2018-12-21T21:27:50.943Z,33.67
2018-12-21T21:30:20.577Z,33.17
2018-12-21T21:32:49.620Z,33.56
2018-12-21T21:35:18.873Z,33.39
2018-12-21T21:37:48.077Z,32.79
2018-12-21T21:40:18.954Z,33.25
2018-12-21T21:42:57.221Z,32.98
2018-12-21T21:45:20.120Z,33.59
2018-12-21T21:47:49.245Z,33.33
2018-12-21T21:50:18.447Z,32.71
2018-12-21T21:52:47.559Z,32.68
2018-12-21T21:55:16.781Z,32.47
2018-12-21T21:57:45.800Z,32.47
2018-12-21T22:00:15.344Z,32.37
2018-12-21T22:02:44.675Z,33.04
2018-12-21T22:05:13.835Z,33.01
2018-12-21T22:07:42.935Z,32.42
2018-12-21T22:10:12.344Z,32.87
2018-12-21T22:12:41.570Z,32.06
2018-12-21T22:15:11.253Z,32.03
2018-12-21T22:17:40.551Z,31.97
2018-12-21T22:20:11.426Z,32.37
2018-12-21T22:22:40.648Z,32.67
2018-12-21T22:25:09.908Z,32.74
2018-12-21T22:27:47.732Z,32.59
2018-12-21T22:30:11.821Z,32.14
2018-12-21T22:32:40.938Z,32.41
2018-12-21T22:35:10.168Z,31.84
2018-12-21T22:37:39.467Z,31.89
2018-12-21T22:40:08.741Z,32.39
2018-12-21T22:42:37.895Z,32.49
2018-12-21T22:45:07.910Z,32.61
2018-12-21T22:47:37.297Z,32.07
2018-12-21T22:50:07.959Z,32.19
2018-12-21T22:52:37.633Z,31.87
2018-12-21T22:55:07.885Z,32.05
2018-12-21T22:57:37.064Z,32.02
2018-12-21T23:00:10.915Z,31.85
2018-12-21T23:02:40.083Z,31.91
2018-12-21T23:05:09.363Z,31.95
2018-12-21T23:07:38.637Z,31.98
2018-12-21T23:10:08.507Z,31.21
2018-12-21T23:12:37.516Z,31.82
2018-12-21T23:15:06.861Z,31.47
2018-12-21T23:17:36.185Z,32.26
2018-12-21T23:20:05.302Z,32.30
2018-12-21T23:22:34.341Z,32.58
2018-12-21T23:25:03.565Z,32.20
2018-12-21T23:27:32.591Z,31.83
2018-12-21T23:30:01.683Z,31.79
2018-12-21T23:32:30.780Z,31.50
2018-12-21T23:34:59.958Z,31.15
2018-12-21T23:37:29.057Z,31.49
2018-12-21T23:39:58.367Z,31.24
2018-12-21T23:42:27.443Z,31.97
2018-12-21T23:44:56.662Z,32.04
2018-12-21T23:47:25.886Z,32.16
2018-12-21T23:49:55.499Z,31.42
2018-12-21T23:52:24.755Z,31.21
2018-12-21T23:54:53.884Z,31.44
2018-12-21T23:57:23.204Z,30.90
2018-12-21T23:59:52.439Z,31.25
